createdAt,value
2018-06-13T00:02:13.945Z,3.30
2018-06-13T00:04:42.777Z,2.80
2018-06-13T00:07:11.031Z,3.37
2018-06-13T00:09:39.287Z,2.67
2018-06-13T00:12:07.532Z,2.60
2018-06-13T00:14:35.764Z,2.60
2018-06-13T00:17:03.947Z,2.60
2018-06-13T00:19:32.185Z,2.97
2018-06-13T00:22:00.399Z,2.40
2018-06-13T00:24:28.379Z,2.73
2018-06-13T00:26:56.592Z,2.47
2018-06-13T00:29:24.808Z,2.97
2018-06-13T00:31:53.060Z,3.27
2018-06-13T00:34:21.275Z,2.70
2018-06-13T00:36:49.556Z,3.40
2018-06-13T00:39:17.807Z,3.43
2018-06-13T00:41:46.011Z,2.60
2018-06-13T00:44:14.284Z,3.10
2018-06-13T00:46:42.512Z,2.83
2018-06-13T00:49:10.719Z,2.80
2018-06-13T00:51:38.948Z,2.40
2018-06-13T00:54:07.156Z,2.67
2018-06-13T00:56:35.409Z,2.47
2018-06-13T00:59:03.616Z,2.77
2018-06-13T01:01:31.860Z,2.70
2018-06-13T01:04:00.080Z,2.20
2018-06-13T01:06:28.295Z,2.20
2018-06-13T01:08:56.728Z,2.03
2018-06-13T01:11:24.946Z,2.30
2018-06-13T01:13:53.163Z,2.70
2018-06-13T01:16:21.431Z,2.40
2018-06-13T01:18:49.629Z,2.77
2018-06-13T01:21:17.887Z,3.40
2018-06-13T01:23:46.111Z,2.93
2018-06-13T01:26:14.120Z,2.60
2018-06-13T01:28:42.352Z,2.97
2018-06-13T01:31:10.612Z,2.77
2018-06-13T01:33:38.846Z,2.60
2018-06-13T01:36:07.044Z,3.10
2018-06-13T01:38:35.304Z,2.57
2018-06-13T01:41:03.523Z,2.60
2018-06-13T01:43:31.757Z,2.80
2018-06-13T01:45:59.967Z,2.90
2018-06-13T01:48:28.199Z,2.67
2018-06-13T01:50:57.475Z,3.40
2018-06-13T01:53:32.268Z,2.90
2018-06-13T01:56:00.515Z,2.90
2018-06-13T01:58:28.707Z,2.50
2018-06-13T02:00:57.099Z,2.60
2018-06-13T02:03:25.297Z,2.33
2018-06-13T02:05:53.524Z,2.70
2018-06-13T02:08:21.746Z,3.10
2018-06-13T02:10:49.958Z,2.30
2018-06-13T02:13:18.216Z,2.43
2018-06-13T02:15:46.215Z,2.87
2018-06-13T02:18:14.443Z,2.20
2018-06-13T02:20:42.644Z,2.33
2018-06-13T02:23:10.912Z,3.40
2018-06-13T02:25:39.140Z,2.83
2018-06-13T02:28:07.393Z,3.50
2018-06-13T02:30:35.784Z,2.80
2018-06-13T02:33:04.044Z,2.70
2018-06-13T02:35:32.276Z,2.80
2018-06-13T02:38:00.508Z,2.63
2018-06-13T02:40:28.746Z,3.03
2018-06-13T02:42:56.999Z,2.80
2018-06-13T02:45:25.248Z,3.20
2018-06-13T02:47:53.480Z,2.37
2018-06-13T02:50:21.439Z,2.70
2018-06-13T02:52:49.693Z,2.93
2018-06-13T02:55:17.935Z,3.23
2018-06-13T02:57:46.157Z,2.57
2018-06-13T03:00:14.492Z,3.10
2018-06-13T03:02:42.747Z,3.60
2018-06-13T03:05:10.959Z,3.07
2018-06-13T03:07:39.168Z,2.73
2018-06-13T03:10:07.401Z,3.40
2018-06-13T03:12:35.660Z,2.77
2018-06-13T03:15:03.916Z,3.13
2018-06-13T03:17:32.849Z,3.00
2018-06-13T03:20:01.784Z,2.80
2018-06-13T03:22:30.033Z,3.60
2018-06-13T03:24:58.255Z,3.07
2018-06-13T03:27:26.498Z,3.20
2018-06-13T03:29:54.901Z,5.73
2018-06-13T03:32:23.141Z,2.57
2018-06-13T03:34:51.416Z,4.60
2018-06-13T03:37:19.739Z,3.73
2018-06-13T03:39:47.940Z,2.77
2018-06-13T03:42:16.151Z,2.30
2018-06-13T03:44:44.132Z,3.40
2018-06-13T03:47:12.370Z,3.27
2018-06-13T03:49:40.612Z,3.27
2018-06-13T03:52:08.835Z,3.07
2018-06-13T03:54:37.129Z,3.17
2018-06-13T03:57:05.128Z,4.10
2018-06-13T03:59:33.381Z,3.03
2018-06-13T04:02:02.339Z,2.93
2018-06-13T04:04:31.213Z,3.37
2018-06-13T04:06:59.479Z,2.57
2018-06-13T04:09:27.700Z,2.37
2018-06-13T04:11:55.952Z,2.80
2018-06-13T04:14:24.188Z,3.40
2018-06-13T04:16:52.452Z,2.37
2018-06-13T04:19:20.700Z,2.30
2018-06-13T04:21:48.927Z,2.70
2018-06-13T04:24:17.187Z,2.70
2018-06-13T04:26:45.422Z,3.10
2018-06-13T04:29:13.828Z,3.30
2018-06-13T04:31:42.122Z,2.57
2018-06-13T04:34:10.413Z,1.93
2018-06-13T04:36:38.652Z,2.30
2018-06-13T04:39:08.922Z,2.73
2018-06-13T04:41:37.240Z,3.00
2018-06-13T04:44:05.454Z,2.83
2018-06-13T04:46:33.713Z,2.27
2018-06-13T04:49:01.983Z,2.50
2018-06-13T04:51:30.207Z,2.00
2018-06-13T04:53:58.464Z,2.40
2018-06-13T04:56:26.711Z,2.47
2018-06-13T04:58:55.032Z,2.23
2018-06-13T05:01:23.265Z,2.57
2018-06-13T05:03:51.520Z,2.00
2018-06-13T05:06:19.748Z,1.63
2018-06-13T05:08:48.000Z,2.23
2018-06-13T05:11:16.224Z,1.73
2018-06-13T05:13:44.480Z,1.80
2018-06-13T05:16:12.759Z,2.30
2018-06-13T05:18:41.003Z,2.30
2018-06-13T05:21:09.304Z,1.67
2018-06-13T05:23:37.563Z,1.90
2018-06-13T05:26:06.168Z,1.63
2018-06-13T05:28:34.430Z,2.00
2018-06-13T05:31:02.463Z,2.30
2018-06-13T05:33:30.687Z,2.10
2018-06-13T05:35:58.971Z,2.00
2018-06-13T05:38:27.299Z,1.90
2018-06-13T05:40:55.621Z,2.07
2018-06-13T05:43:23.938Z,1.90
2018-06-13T05:45:52.328Z,2.43
2018-06-13T05:48:20.532Z,2.33
2018-06-13T05:50:48.928Z,2.80
2018-06-13T05:53:16.952Z,2.30
2018-06-13T05:55:45.212Z,2.40
2018-06-13T05:58:13.459Z,3.17
2018-06-13T06:00:41.795Z,2.10
2018-06-13T06:03:11.049Z,2.73
2018-06-13T06:05:39.304Z,2.57
2018-06-13T06:08:07.316Z,2.90
2018-06-13T06:10:35.657Z,2.80
2018-06-13T06:13:03.854Z,2.50
2018-06-13T06:15:32.306Z,2.17
2018-06-13T06:18:00.693Z,2.23
2018-06-13T06:20:28.751Z,2.65
2018-06-13T06:22:57.204Z,2.40
2018-06-13T06:25:25.455Z,1.97
2018-06-13T06:27:53.715Z,1.70
2018-06-13T06:30:21.999Z,2.20
2018-06-13T06:32:50.251Z,1.80
2018-06-13T06:35:18.520Z,2.37
2018-06-13T06:37:46.741Z,2.40
2018-06-13T06:40:14.972Z,1.60
2018-06-13T06:42:43.228Z,2.40
2018-06-13T06:45:11.460Z,1.97
2018-06-13T06:47:39.718Z,2.10
2018-06-13T06:50:07.779Z,1.80
2018-06-13T06:52:36.013Z,1.57
2018-06-13T06:55:04.268Z,1.60
2018-06-13T06:57:32.573Z,1.90
2018-06-13T07:00:00.804Z,1.80
2018-06-13T07:02:29.050Z,1.70
2018-06-13T07:04:57.311Z,2.20
2018-06-13T07:07:25.556Z,2.17
2018-06-13T07:09:53.760Z,2.00
2018-06-13T07:12:22.009Z,1.83
2018-06-13T07:14:50.264Z,2.00
2018-06-13T07:17:18.552Z,1.80
2018-06-13T07:19:46.803Z,1.77
2018-06-13T07:22:15.087Z,2.33
2018-06-13T07:24:43.363Z,1.77
2018-06-13T07:27:11.624Z,1.90
2018-06-13T07:29:39.865Z,2.10
2018-06-13T07:32:08.126Z,2.40
2018-06-13T07:34:36.392Z,1.23
2018-06-13T07:37:04.636Z,1.83
2018-06-13T07:39:32.880Z,2.50
2018-06-13T07:42:01.237Z,2.13
2018-06-13T07:44:29.196Z,1.80
2018-06-13T07:46:57.440Z,2.33
2018-06-13T07:49:25.746Z,1.73
2018-06-13T07:51:54.485Z,1.87
2018-06-13T07:54:22.743Z,1.60
2018-06-13T07:56:51.024Z,1.60
2018-06-13T07:59:19.299Z,1.60
2018-06-13T08:01:47.536Z,1.30
2018-06-13T08:04:15.795Z,1.20
2018-06-13T08:06:44.047Z,1.63
2018-06-13T08:09:12.305Z,2.20
2018-06-13T08:11:40.598Z,1.87
2018-06-13T08:14:08.868Z,2.53
2018-06-13T08:16:37.096Z,1.30
2018-06-13T08:19:05.606Z,1.50
2018-06-13T08:21:33.861Z,2.83
2018-06-13T08:24:02.116Z,1.20
2018-06-13T08:26:30.119Z,1.13
2018-06-13T08:28:58.356Z,1.37
2018-06-13T08:31:26.620Z,1.23
2018-06-13T08:33:54.860Z,1.60
2018-06-13T08:36:23.100Z,2.50
2018-06-13T08:38:51.339Z,1.47
2018-06-13T08:41:19.589Z,1.67
2018-06-13T08:43:47.835Z,1.70
2018-06-13T08:46:16.113Z,1.30
2018-06-13T08:48:44.436Z,1.87
2018-06-13T08:51:12.681Z,1.40
2018-06-13T08:53:40.969Z,1.60
2018-06-13T08:56:09.233Z,1.77
2018-06-13T08:58:37.522Z,1.60
2018-06-13T09:01:05.845Z,1.60
2018-06-13T09:03:34.140Z,1.90
2018-06-13T09:06:02.377Z,1.47
2018-06-13T09:08:30.601Z,1.90
2018-06-13T09:10:58.880Z,2.60
2018-06-13T09:13:27.128Z,1.90
2018-06-13T09:15:55.358Z,1.67
2018-06-13T09:18:23.665Z,2.30
2018-06-13T09:20:51.933Z,1.50
2018-06-13T09:23:20.191Z,1.73
2018-06-13T09:25:48.446Z,1.80
2018-06-13T09:28:16.713Z,2.90
2018-06-13T09:30:44.683Z,1.67
2018-06-13T09:33:13.042Z,1.53
2018-06-13T09:35:41.301Z,2.00
2018-06-13T09:38:09.536Z,1.30
2018-06-13T09:40:37.810Z,1.50
2018-06-13T09:43:06.074Z,2.47
2018-06-13T09:45:34.332Z,2.03
2018-06-13T09:48:02.624Z,1.63
2018-06-13T09:50:30.901Z,1.40
2018-06-13T09:52:59.139Z,2.03
2018-06-13T09:55:27.383Z,1.30
2018-06-13T09:57:55.630Z,1.73
2018-06-13T10:00:28.979Z,2.93
2018-06-13T10:02:57.216Z,1.77
2018-06-13T10:05:25.534Z,1.80
2018-06-13T10:07:53.797Z,1.60
2018-06-13T10:10:22.300Z,1.37
2018-06-13T10:12:50.646Z,2.13
2018-06-13T10:15:18.948Z,2.47
2018-06-13T10:17:47.292Z,2.00
2018-06-13T10:20:15.675Z,0.80
2018-06-13T10:22:43.982Z,1.60
2018-06-13T10:25:12.252Z,1.30
2018-06-13T10:27:41.381Z,1.93
2018-06-13T10:30:09.627Z,1.60
2018-06-13T10:32:37.828Z,1.83
2018-06-13T10:35:06.101Z,2.00
2018-06-13T10:37:34.337Z,2.03
2018-06-13T10:40:02.571Z,1.70
2018-06-13T10:42:30.868Z,1.70
2018-06-13T10:44:59.109Z,1.90
2018-06-13T10:47:27.376Z,1.67
2018-06-13T10:49:55.656Z,1.20
2018-06-13T10:52:23.896Z,1.83
2018-06-13T10:54:53.603Z,1.40
2018-06-13T10:57:20.151Z,1.27
2018-06-13T10:59:48.408Z,1.40
2018-06-13T11:02:16.650Z,1.33
2018-06-13T11:04:44.970Z,1.40
2018-06-13T11:07:13.224Z,1.30
2018-06-13T11:09:41.985Z,1.47
2018-06-13T11:12:10.252Z,1.87
2018-06-13T11:14:38.503Z,1.33
2018-06-13T11:17:06.770Z,0.93
2018-06-13T11:19:35.044Z,1.77
2018-06-13T11:22:03.320Z,1.57
2018-06-13T11:24:31.565Z,1.30
2018-06-13T11:26:59.846Z,1.50
2018-06-13T11:29:28.143Z,1.30
2018-06-13T11:31:56.469Z,1.40
2018-06-13T11:34:24.700Z,1.60
2018-06-13T11:36:53.247Z,1.33
2018-06-13T11:39:21.644Z,1.50
2018-06-13T11:41:49.930Z,1.53
2018-06-13T11:44:18.264Z,2.57
2018-06-13T11:46:46.492Z,1.40
2018-06-13T11:49:14.772Z,1.70
2018-06-13T11:51:42.980Z,1.20
2018-06-13T11:54:11.276Z,1.53
2018-06-13T11:56:39.496Z,1.20
2018-06-13T11:59:07.495Z,1.80
2018-06-13T12:01:35.740Z,1.97
2018-06-13T12:04:03.973Z,1.50
2018-06-13T12:06:32.221Z,1.60
2018-06-13T12:09:00.252Z,1.53
2018-06-13T12:11:28.747Z,1.40
2018-06-13T12:13:56.969Z,1.50
2018-06-13T12:16:25.242Z,1.50
2018-06-13T12:18:53.495Z,1.20
2018-06-13T12:21:21.768Z,1.53
2018-06-13T12:23:50.004Z,1.33
2018-06-13T12:26:18.365Z,1.57
2018-06-13T12:28:46.596Z,1.20
2018-06-13T12:31:14.832Z,1.60
2018-06-13T12:33:43.166Z,1.23
2018-06-13T12:36:11.421Z,1.77
2018-06-13T12:38:39.859Z,1.60
2018-06-13T12:41:08.112Z,1.60
2018-06-13T12:43:36.385Z,1.30
2018-06-13T12:46:04.769Z,1.47
2018-06-13T12:48:32.997Z,2.47
2018-06-13T12:51:01.254Z,1.30
2018-06-13T12:53:29.543Z,1.60
2018-06-13T12:55:57.769Z,1.60
2018-06-13T12:58:26.273Z,1.53
2018-06-13T13:00:54.710Z,1.60
2018-06-13T13:03:23.012Z,1.97
2018-06-13T13:05:51.006Z,1.50
2018-06-13T13:08:19.255Z,1.47
2018-06-13T13:10:47.520Z,1.60
2018-06-13T13:13:15.785Z,1.70
2018-06-13T13:15:44.037Z,2.20
2018-06-13T13:18:12.295Z,2.13
2018-06-13T13:20:40.548Z,1.80
2018-06-13T13:23:08.808Z,1.63
2018-06-13T13:25:37.103Z,1.73
2018-06-13T13:28:05.534Z,2.00
2018-06-13T13:30:33.923Z,1.90
2018-06-13T13:33:02.226Z,2.33
2018-06-13T13:35:30.465Z,1.73
2018-06-13T13:37:58.683Z,1.60
2018-06-13T13:40:26.944Z,1.83
2018-06-13T13:42:55.202Z,1.77
2018-06-13T13:45:23.527Z,2.43
2018-06-13T13:47:51.724Z,1.60
2018-06-13T13:50:19.979Z,1.13
2018-06-13T13:52:48.248Z,1.50
2018-06-13T13:55:16.652Z,1.50
2018-06-13T13:57:44.880Z,2.30
2018-06-13T14:00:13.316Z,1.63
2018-06-13T14:02:41.537Z,1.20
2018-06-13T14:05:09.818Z,1.83
2018-06-13T14:07:38.033Z,2.40
2018-06-13T14:10:06.336Z,2.50
2018-06-13T14:12:34.640Z,1.93
2018-06-13T14:15:02.906Z,2.10
2018-06-13T14:17:31.161Z,1.93
2018-06-13T14:19:59.448Z,1.90
2018-06-13T14:22:27.863Z,1.80
2018-06-13T14:24:56.024Z,1.73
2018-06-13T14:27:24.293Z,1.53
2018-06-13T14:29:52.602Z,2.00
2018-06-13T14:32:20.888Z,1.30
2018-06-13T14:34:48.907Z,1.90
2018-06-13T14:37:17.219Z,2.30
2018-06-13T14:39:45.405Z,2.23
2018-06-13T14:42:13.671Z,1.90
2018-06-13T14:44:41.941Z,1.47
2018-06-13T14:47:10.228Z,1.90
2018-06-13T14:49:38.480Z,2.67
2018-06-13T14:52:06.735Z,1.70
2018-06-13T14:54:35.033Z,2.50
2018-06-13T14:57:03.312Z,2.10
2018-06-13T14:59:31.627Z,3.37
2018-06-13T15:01:59.941Z,2.03
2018-06-13T15:04:32.624Z,2.50
2018-06-13T15:07:01.455Z,2.80
2018-06-13T15:09:29.696Z,2.20
2018-06-13T15:11:57.984Z,3.07
2018-06-13T15:14:26.365Z,2.20
2018-06-13T15:16:54.595Z,1.67
2018-06-13T15:19:22.981Z,2.17
2018-06-13T15:21:51.289Z,2.10
2018-06-13T15:24:19.565Z,1.80
2018-06-13T15:26:48.039Z,2.37
2018-06-13T15:29:16.543Z,1.90
2018-06-13T15:31:44.536Z,2.07
2018-06-13T15:34:12.836Z,1.93
2018-06-13T15:36:41.077Z,1.90
2018-06-13T15:39:11.903Z,2.40
2018-06-13T15:41:40.260Z,2.90
2018-06-13T15:44:08.547Z,2.00
2018-06-13T15:46:36.855Z,2.60
2018-06-13T15:49:05.145Z,2.70
2018-06-13T15:51:33.397Z,2.30
2018-06-13T15:54:01.966Z,2.23
2018-06-13T15:56:30.420Z,3.80
2018-06-13T15:58:58.964Z,5.47
2018-06-13T16:01:26.971Z,2.90
2018-06-13T16:03:55.267Z,7.37
2018-06-13T16:06:23.483Z,2.30
2018-06-13T16:08:51.727Z,3.37
2018-06-13T16:11:19.988Z,4.20
2018-06-13T16:13:48.303Z,2.00
2018-06-13T16:16:16.553Z,2.03
2018-06-13T16:18:44.799Z,2.40
2018-06-13T16:21:13.026Z,3.37
2018-06-13T16:23:41.317Z,2.30
2018-06-13T16:26:09.963Z,3.10
2018-06-13T16:28:37.990Z,1.60
2018-06-13T16:31:06.401Z,2.37
2018-06-13T16:33:34.661Z,2.47
2018-06-13T16:36:02.785Z,2.57
2018-06-13T16:38:31.808Z,2.40
2018-06-13T16:41:00.059Z,2.13
2018-06-13T16:43:28.396Z,2.10
2018-06-13T16:45:56.898Z,2.20
2018-06-13T16:48:25.187Z,3.33
2018-06-13T16:51:04.780Z,2.70
2018-06-13T16:54:10.432Z,2.83
2018-06-13T16:56:39.310Z,2.50
2018-06-13T16:59:08.269Z,3.00
2018-06-13T17:01:36.524Z,2.60
2018-06-13T17:04:05.531Z,2.73
2018-06-13T17:06:33.766Z,2.23
2018-06-13T17:09:02.056Z,2.60
2018-06-13T17:11:30.356Z,3.00
2018-06-13T17:13:58.642Z,2.67
2018-06-13T17:16:26.915Z,2.97
2018-06-13T17:18:55.218Z,2.77
2018-06-13T17:21:23.506Z,2.57
2018-06-13T17:23:51.735Z,2.70
2018-06-13T17:26:20.403Z,3.10
2018-06-13T17:28:48.667Z,2.77
2018-06-13T17:31:16.907Z,3.17
2018-06-13T17:33:45.180Z,3.20
2018-06-13T17:36:13.408Z,2.63
2018-06-13T17:38:41.627Z,2.60
2018-06-13T17:41:10.465Z,2.60
2018-06-13T17:43:38.775Z,3.17
2018-06-13T17:46:07.399Z,2.70
2018-06-13T17:48:35.706Z,3.40
2018-06-13T17:51:04.632Z,2.77
2018-06-13T17:53:32.944Z,2.87
2018-06-13T17:56:01.749Z,2.90
2018-06-13T17:58:30.056Z,2.80
2018-06-13T18:00:58.063Z,2.67
2018-06-13T18:03:26.289Z,3.10
2018-06-13T18:05:54.556Z,2.20
2018-06-13T18:08:22.844Z,2.13
2018-06-13T18:10:51.124Z,2.63
2018-06-13T18:13:19.401Z,2.20
2018-06-13T18:15:47.658Z,2.23
2018-06-13T18:18:15.932Z,2.53
2018-06-13T18:20:44.185Z,2.40
2018-06-13T18:23:12.564Z,2.80
2018-06-13T18:25:40.812Z,2.60
2018-06-13T18:28:09.124Z,2.47
2018-06-13T18:30:37.356Z,2.40
2018-06-13T18:33:05.665Z,2.80
2018-06-13T18:35:33.895Z,2.30
2018-06-13T18:38:02.124Z,2.93
2018-06-13T18:40:30.448Z,2.93
2018-06-13T18:42:59.100Z,3.50
2018-06-13T18:45:27.375Z,2.83
2018-06-13T18:47:55.634Z,2.53
2018-06-13T18:50:23.912Z,2.93
2018-06-13T18:52:52.193Z,3.10
2018-06-13T18:55:20.494Z,3.60
2018-06-13T18:57:48.900Z,3.40
2018-06-13T19:00:17.063Z,3.60
2018-06-13T19:02:45.406Z,3.57
2018-06-13T19:05:13.640Z,3.57
2018-06-13T19:07:41.864Z,3.37
2018-06-13T19:10:10.315Z,4.40
2018-06-13T19:12:38.337Z,3.77
2018-06-13T19:15:06.584Z,3.63
2018-06-13T19:17:34.864Z,3.33
2018-06-13T19:20:03.156Z,3.40
2018-06-13T19:22:31.420Z,3.20
2018-06-13T19:24:59.716Z,3.40
2018-06-13T19:27:27.968Z,2.53
2018-06-13T19:29:56.260Z,3.60
2018-06-13T19:32:24.834Z,3.00
2018-06-13T19:34:53.559Z,3.03
2018-06-13T19:37:21.854Z,3.30
2018-06-13T19:39:50.112Z,3.80
2018-06-13T19:42:18.384Z,3.27
2018-06-13T19:44:47.196Z,3.10
2018-06-13T19:47:20.846Z,3.23
2018-06-13T19:49:49.075Z,3.47
2018-06-13T19:52:17.336Z,3.10
2018-06-13T19:54:50.954Z,3.57
2018-06-13T19:57:19.303Z,3.17
2018-06-13T19:59:48.016Z,4.27
2018-06-13T20:02:16.516Z,4.40
2018-06-13T20:04:50.154Z,3.30
2018-06-13T20:07:18.592Z,3.03
2018-06-13T20:09:47.139Z,3.63
2018-06-13T20:12:46.413Z,3.33
2018-06-13T20:15:20.047Z,3.60
2018-06-13T20:17:54.181Z,3.37
2018-06-13T20:20:23.145Z,3.40
2018-06-13T20:22:51.881Z,3.20
2018-06-13T20:25:25.920Z,3.47
2018-06-13T20:28:00.017Z,3.23
2018-06-13T20:30:33.677Z,4.47
2018-06-13T20:33:01.938Z,3.70
2018-06-13T20:35:30.239Z,3.20
2018-06-13T20:37:58.456Z,3.57
2018-06-13T20:40:26.719Z,5.70
2018-06-13T20:42:54.989Z,3.47
2018-06-13T20:45:23.245Z,4.00
2018-06-13T20:47:51.529Z,4.10
2018-06-13T20:50:19.813Z,3.13
2018-06-13T20:52:48.056Z,3.07
2018-06-13T20:55:16.368Z,3.30
2018-06-13T20:57:44.647Z,3.10
2018-06-13T21:00:12.920Z,3.77
2018-06-13T21:02:41.139Z,3.50
2018-06-13T21:05:09.411Z,3.00
2018-06-13T21:07:37.426Z,3.37
2018-06-13T21:10:05.750Z,3.60
2018-06-13T21:12:34.012Z,3.13
2018-06-13T21:15:02.275Z,3.47
2018-06-13T21:17:30.537Z,3.60
2018-06-13T21:19:58.763Z,3.67
2018-06-13T21:22:27.052Z,3.83
2018-06-13T21:24:55.259Z,4.23
2018-06-13T21:27:23.491Z,4.47
2018-06-13T21:29:51.856Z,4.60
2018-06-13T21:32:20.103Z,4.77
2018-06-13T21:34:48.351Z,4.57
2018-06-13T21:37:16.566Z,4.80
2018-06-13T21:39:44.835Z,4.93
2018-06-13T21:42:12.815Z,4.60
2018-06-13T21:44:41.096Z,6.20
2018-06-13T21:47:09.358Z,5.27
2018-06-13T21:49:37.601Z,5.27
2018-06-13T21:52:05.897Z,5.63
2018-06-13T21:54:34.136Z,7.13
2018-06-13T21:57:02.387Z,8.43
2018-06-13T21:59:30.844Z,5.40
2018-06-13T22:01:59.069Z,6.87
2018-06-13T22:04:27.302Z,6.30
2018-06-13T22:06:55.560Z,5.73
2018-06-13T22:09:23.819Z,5.10
2018-06-13T22:11:53.049Z,5.63
2018-06-13T22:14:22.471Z,5.30
2018-06-13T22:16:51.215Z,5.17
2018-06-13T22:19:19.708Z,5.20
2018-06-13T22:21:48.037Z,5.50
2018-06-13T22:24:16.304Z,5.70
2018-06-13T22:26:44.660Z,5.23
2018-06-13T22:29:12.974Z,5.70
2018-06-13T22:31:41.234Z,5.30
2018-06-13T22:34:09.685Z,5.37
2018-06-13T22:36:37.916Z,5.40
2018-06-13T22:39:06.806Z,5.37
2018-06-13T22:41:34.790Z,5.50
2018-06-13T22:44:03.116Z,5.37
2018-06-13T22:46:31.135Z,5.77
2018-06-13T22:48:59.429Z,5.80
2018-06-13T22:51:27.924Z,5.53
2018-06-13T22:53:56.180Z,5.17
2018-06-13T22:56:24.695Z,5.37
2018-06-13T22:58:53.065Z,4.20
2018-06-13T23:01:21.345Z,5.70
2018-06-13T23:03:49.584Z,5.27
2018-06-13T23:06:17.877Z,6.20
2018-06-13T23:08:46.304Z,6.00
2018-06-13T23:11:14.592Z,5.70
2018-06-13T23:13:42.867Z,6.00
2018-06-13T23:16:11.140Z,5.93
2018-06-13T23:18:39.408Z,5.80
2018-06-13T23:21:07.446Z,5.80
2018-06-13T23:23:36.480Z,6.10
2018-06-13T23:26:04.728Z,7.30
2018-06-13T23:28:32.980Z,6.30
2018-06-13T23:31:01.210Z,5.97
2018-06-13T23:33:29.465Z,6.03
2018-06-13T23:35:57.752Z,6.00
2018-06-13T23:38:26.000Z,5.20
2018-06-13T23:40:54.287Z,5.93
2018-06-13T23:43:22.535Z,6.90
2018-06-13T23:45:50.775Z,6.07
2018-06-13T23:48:19.092Z,6.93
2018-06-13T23:50:47.569Z,6.40
2018-06-13T23:53:15.780Z,6.50
2018-06-13T23:55:43.999Z,7.33
2018-06-13T23:58:12.254Z,7.17
